Time;durP1;ratioP1;P1;durP2;ratioP2;P2;SDS_P1;SDS_P2;PMS_P1;PMS_P2;Temp;Humidity;BMP_temperature;BMP_pressure;BME280_temperature;BME280_humidity;BME280_pressure;Samples;Min_cycle;Max_cycle;Signal;HPM_P1;HPM_P2
2023/01/31 00:00:15;;;;;;;30.63;4.38;;;;;;;;;;5096836;28;20572;-72
2023/01/31 00:02:41;;;;;;;38.00;5.03;;;;;;;;;;5096108;28;20048;-71
2023/01/31 00:05:08;;;;;;;24.63;3.97;;;;;;;;;;5097726;28;20145;-71
2023/01/31 00:07:34;;;;;;;23.42;4.30;;;;;;;;;;5078891;28;20043;-71
2023/01/31 00:10:00;;;;;;;48.97;4.75;;;;;;;;;;5096931;28;20041;-71
2023/01/31 00:12:26;;;;;;;31.55;4.95;;;;;;;;;;5097365;28;20068;-71
2023/01/31 00:14:52;;;;;;;31.88;4.68;;;;;;;;;;5096801;28;20519;-71
2023/01/31 00:17:19;;;;;;;24.02;3.53;;;;;;;;;;5099699;28;20044;-71
2023/01/31 00:19:45;;;;;;;26.45;3.92;;;;;;;;;;5095677;28;20048;-71
2023/01/31 00:22:11;;;;;;;23.23;4.03;;;;;;;;;;5081374;28;20050;-71
2023/01/31 00:24:37;;;;;;;25.95;3.75;;;;;;;;;;5080509;28;20043;-71
2023/01/31 00:27:03;;;;;;;30.38;4.45;;;;;;;;;;5080013;28;20078;-72
2023/01/31 00:29:29;;;;;;;28.00;4.28;;;;;;;;;;5081530;28;20039;-71
2023/01/31 00:31:55;;;;;;;21.83;3.70;;;;;;;;;;5097146;28;20071;-71
2023/01/31 00:34:21;;;;;;;30.45;5.10;;;;;;;;;;5079858;28;20040;-71
2023/01/31 00:36:48;;;;;;;21.33;3.90;;;;;;;;;;5098527;28;20040;-71
2023/01/31 00:39:14;;;;;;;25.95;4.85;;;;;;;;;;5093774;28;20047;-71
2023/01/31 00:41:40;;;;;;;29.02;5.05;;;;;;;;;;5095391;28;20059;-72
2023/01/31 00:44:07;;;;;;;24.85;3.80;;;;;;;;;;5096497;28;20047;-72
2023/01/31 00:46:33;;;;;;;21.45;3.22;;;;;;;;;;5077773;28;20051;-72
2023/01/31 00:49:00;;;;;;;27.92;4.78;;;;;;;;;;5096551;28;20055;-72
2023/01/31 00:51:27;;;;;;;25.38;3.47;;;;;;;;;;5096648;28;20391;-71
2023/01/31 00:53:53;;;;;;;18.25;3.25;;;;;;;;;;5098924;28;20152;-71
2023/01/31 00:56:22;;;;;;;34.88;4.18;;;;;;;;;;5100416;28;20130;-71
2023/01/31 00:58:49;;;;;;;26.70;4.35;;;;;;;;;;5096182;28;20040;-71
2023/01/31 01:01:16;;;;;;;19.88;3.05;;;;;;;;;;5096102;28;20144;-71
2023/01/31 01:03:43;;;;;;;28.77;4.13;;;;;;;;;;5096660;28;20115;-71
2023/01/31 01:06:10;;;;;;;34.38;4.00;;;;;;;;;;5100138;28;20100;-72
2023/01/31 01:08:36;;;;;;;25.25;3.90;;;;;;;;;;5098330;28;20399;-71
2023/01/31 01:11:05;;;;;;;34.92;4.50;;;;;;;;;;5090863;28;20125;-72
2023/01/31 01:13:31;;;;;;;26.15;4.10;;;;;;;;;;5094344;28;20108;-71
2023/01/31 01:15:58;;;;;;;28.77;3.63;;;;;;;;;;5097654;28;20032;-71
2023/01/31 01:18:24;;;;;;;30.73;3.58;;;;;;;;;;5099268;28;20131;-71
2023/01/31 01:20:50;;;;;;;32.45;4.10;;;;;;;;;;5096853;28;20044;-71
2023/01/31 01:23:16;;;;;;;36.63;4.70;;;;;;;;;;5082366;28;20480;-71
2023/01/31 01:25:43;;;;;;;23.77;3.75;;;;;;;;;;5101183;28;20529;-71
2023/01/31 01:28:09;;;;;;;29.35;3.50;;;;;;;;;;5083717;28;20387;-71
2023/01/31 01:30:37;;;;;;;21.85;2.85;;;;;;;;;;5099876;28;20396;-71
2023/01/31 01:33:03;;;;;;;23.65;3.42;;;;;;;;;;5099525;28;20089;-71
2023/01/31 01:35:30;;;;;;;22.65;3.42;;;;;;;;;;5094971;28;20039;-71
2023/01/31 01:37:56;;;;;;;21.00;4.00;;;;;;;;;;5096348;28;20515;-71
2023/01/31 01:40:22;;;;;;;19.52;2.95;;;;;;;;;;5079365;28;20760;-72
2023/01/31 01:42:49;;;;;;;23.67;4.32;;;;;;;;;;5063219;28;20062;-72
2023/01/31 01:45:15;;;;;;;25.13;3.75;;;;;;;;;;5094909;28;20040;-72
2023/01/31 01:47:43;;;;;;;25.70;4.07;;;;;;;;;;5095011;28;20043;-72
2023/01/31 01:50:10;;;;;;;37.17;3.88;;;;;;;;;;5097687;28;20092;-72
2023/01/31 01:52:39;;;;;;;27.08;4.32;;;;;;;;;;5099927;28;20047;-72
2023/01/31 01:55:10;;;;;;;27.40;3.30;;;;;;;;;;5097549;28;20033;-72
2023/01/31 01:57:39;;;;;;;24.85;3.60;;;;;;;;;;5095284;28;20060;-72
2023/01/31 02:00:09;;;;;;;23.30;4.32;;;;;;;;;;5078890;28;20039;-72
2023/01/31 02:02:36;;;;;;;29.33;3.05;;;;;;;;;;5093875;28;20075;-72
2023/01/31 02:05:02;;;;;;;32.33;3.83;;;;;;;;;;5096940;28;20103;-72
2023/01/31 02:07:29;;;;;;;28.48;3.95;;;;;;;;;;5095657;28;20035;-72
2023/01/31 02:10:03;;;;;;;23.50;3.97;;;;;;;;;;5076157;28;20048;-72
2023/01/31 02:12:30;;;;;;;29.45;4.72;;;;;;;;;;5096249;28;20367;-72
2023/01/31 02:14:56;;;;;;;40.97;4.90;;;;;;;;;;5095596;28;20473;-72
2023/01/31 02:17:22;;;;;;;22.15;3.58;;;;;;;;;;5097034;28;20067;-72
2023/01/31 02:20:14;;;;;;;24.70;4.03;;;;;;;;;;5080044;28;20487;-72
2023/01/31 02:22:59;;;;;;;20.67;3.10;;;;;;;;;;5098266;28;20122;-72
2023/01/31 02:25:38;;;;;;;23.10;3.60;;;;;;;;;;5097815;28;20040;-72
2023/01/31 02:28:17;;;;;;;22.10;3.33;;;;;;;;;;5100608;28;20039;-72
2023/01/31 02:30:57;;;;;;;21.02;2.88;;;;;;;;;;5081310;28;20048;-72
2023/01/31 02:33:23;;;;;;;18.65;3.90;;;;;;;;;;5081470;28;20059;-72
2023/01/31 02:35:50;;;;;;;33.95;5.03;;;;;;;;;;5079208;28;20639;-72
2023/01/31 02:38:30;;;;;;;20.23;3.00;;;;;;;;;;5076196;28;20499;-72
2023/01/31 02:41:07;;;;;;;23.63;3.10;;;;;;;;;;5097597;28;20047;-72
2023/01/31 02:46:39;;;;;;;27.13;3.05;;;;;;;;;;5080847;28;20345;-72
2023/01/31 02:49:33;;;;;;;24.70;3.53;;;;;;;;;;5100617;28;20347;-72
2023/01/31 02:52:15;;;;;;;16.33;2.40;;;;;;;;;;5097399;28;20044;-72
2023/01/31 02:57:29;;;;;;;32.58;3.78;;;;;;;;;;5081681;28;20463;-72
2023/01/31 02:59:55;;;;;;;28.02;3.17;;;;;;;;;;5095944;28;20683;-72
2023/01/31 03:02:22;;;;;;;29.65;4.20;;;;;;;;;;5102185;28;20048;-72
2023/01/31 03:04:48;;;;;;;22.40;3.17;;;;;;;;;;5077948;28;20055;-72
2023/01/31 03:07:25;;;;;;;31.80;4.50;;;;;;;;;;5079064;28;20154;-72
2023/01/31 03:09:52;;;;;;;20.70;2.88;;;;;;;;;;5096763;28;20059;-72
2023/01/31 03:12:29;;;;;;;24.08;3.78;;;;;;;;;;5081785;28;20067;-72
2023/01/31 03:15:01;;;;;;;23.75;3.53;;;;;;;;;;5103130;28;20115;-72
2023/01/31 03:17:38;;;;;;;26.13;3.03;;;;;;;;;;5101040;28;20036;-72
2023/01/31 03:20:14;;;;;;;25.13;4.57;;;;;;;;;;5101728;28;20108;-72
2023/01/31 03:22:44;;;;;;;21.30;3.38;;;;;;;;;;5078847;28;20062;-72
2023/01/31 03:25:13;;;;;;;29.55;4.47;;;;;;;;;;5097481;28;20047;-72
2023/01/31 03:27:43;;;;;;;34.53;5.00;;;;;;;;;;5102525;28;20075;-72
2023/01/31 03:30:12;;;;;;;22.02;3.08;;;;;;;;;;5082974;28;20039;-72
2023/01/31 03:32:42;;;;;;;27.70;4.63;;;;;;;;;;5099357;28;20119;-72
2023/01/31 03:35:08;;;;;;;34.20;4.60;;;;;;;;;;5094276;28;20399;-72
2023/01/31 03:37:46;;;;;;;35.90;5.63;;;;;;;;;;5097203;28;20036;-72
2023/01/31 03:40:16;;;;;;;32.30;4.65;;;;;;;;;;5082437;28;20074;-72
2023/01/31 03:42:47;;;;;;;36.50;4.38;;;;;;;;;;5082565;28;20380;-72
2023/01/31 03:45:21;;;;;;;24.52;3.22;;;;;;;;;;5098423;28;20039;-72
2023/01/31 03:47:48;;;;;;;28.90;4.55;;;;;;;;;;5097305;28;20059;-72
2023/01/31 03:50:18;;;;;;;38.85;5.97;;;;;;;;;;5097569;28;20395;-72
2023/01/31 03:52:49;;;;;;;22.88;4.00;;;;;;;;;;5096944;28;20064;-72
2023/01/31 03:55:18;;;;;;;23.10;4.30;;;;;;;;;;5097086;28;20039;-72
2023/01/31 03:57:45;;;;;;;40.40;5.63;;;;;;;;;;5098142;28;20080;-72
2023/01/31 04:00:13;;;;;;;25.08;5.47;;;;;;;;;;5080234;28;20039;-72
2023/01/31 04:02:40;;;;;;;38.38;5.38;;;;;;;;;;5098226;28;20611;-72
2023/01/31 04:05:09;;;;;;;29.88;5.15;;;;;;;;;;5079729;28;20047;-72
2023/01/31 04:07:35;;;;;;;28.23;4.38;;;;;;;;;;5081300;28;20055;-72
2023/01/31 04:10:04;;;;;;;38.58;5.35;;;;;;;;;;5077757;28;20485;-72
2023/01/31 04:12:34;;;;;;;41.30;5.28;;;;;;;;;;5097186;28;20047;-72
2023/01/31 04:15:00;;;;;;;44.30;5.35;;;;;;;;;;5076578;28;20130;-72
2023/01/31 04:17:26;;;;;;;33.53;5.85;;;;;;;;;;5097157;28;20044;-72
2023/01/31 04:19:52;;;;;;;36.67;4.85;;;;;;;;;;5098005;28;20119;-72
2023/01/31 04:22:19;;;;;;;33.97;5.80;;;;;;;;;;5098002;28;20052;-71
2023/01/31 04:24:45;;;;;;;39.85;5.80;;;;;;;;;;5097919;28;20050;-72
2023/01/31 04:27:11;;;;;;;38.30;5.80;;;;;;;;;;5097442;28;20092;-72
2023/01/31 04:29:37;;;;;;;43.80;5.95;;;;;;;;;;5097366;28;20114;-72
2023/01/31 04:32:03;;;;;;;43.17;6.57;;;;;;;;;;5078616;28;20036;-72
2023/01/31 04:34:29;;;;;;;35.92;5.88;;;;;;;;;;5081431;28;20059;-72
2023/01/31 04:36:55;;;;;;;43.38;5.85;;;;;;;;;;5078550;28;20130;-72
2023/01/31 04:39:22;;;;;;;26.35;6.13;;;;;;;;;;5093880;28;20062;-72
2023/01/31 04:41:48;;;;;;;40.55;5.88;;;;;;;;;;5095806;28;20039;-71
2023/01/31 04:44:15;;;;;;;49.50;6.55;;;;;;;;;;5093226;28;20090;-72
2023/01/31 04:46:41;;;;;;;38.42;5.57;;;;;;;;;;5097384;28;20452;-72
2023/01/31 04:49:08;;;;;;;36.88;6.13;;;;;;;;;;5095454;28;20104;-72
2023/01/31 04:51:34;;;;;;;34.42;5.03;;;;;;;;;;5080024;28;20044;-72
2023/01/31 04:54:00;;;;;;;33.13;5.18;;;;;;;;;;5099544;28;20043;-72
2023/01/31 04:56:26;;;;;;;42.60;7.47;;;;;;;;;;5098186;28;20585;-72
2023/01/31 04:58:52;;;;;;;35.55;5.35;;;;;;;;;;5096332;28;20138;-72
2023/01/31 05:01:19;;;;;;;37.75;6.72;;;;;;;;;;5096289;28;21340;-72
2023/01/31 05:03:45;;;;;;;35.60;5.60;;;;;;;;;;5079708;28;20089;-72
2023/01/31 05:06:11;;;;;;;34.38;5.80;;;;;;;;;;5095276;28;20466;-72
2023/01/31 05:08:37;;;;;;;30.38;5.43;;;;;;;;;;5096855;28;20123;-72
2023/01/31 05:11:05;;;;;;;39.47;6.30;;;;;;;;;;5099630;28;20071;-72
2023/01/31 05:13:33;;;;;;;48.60;6.28;;;;;;;;;;5099902;28;20050;-72
2023/01/31 05:15:59;;;;;;;37.78;6.40;;;;;;;;;;5085622;28;20048;-72
2023/01/31 05:18:25;;;;;;;46.22;8.48;;;;;;;;;;5100520;28;20143;-72
2023/01/31 05:20:51;;;;;;;43.28;6.32;;;;;;;;;;5096783;28;20052;-71
2023/01/31 05:23:18;;;;;;;32.50;4.95;;;;;;;;;;5103627;28;20054;-72
2023/01/31 05:25:45;;;;;;;33.45;5.25;;;;;;;;;;5095942;28;20333;-71
2023/01/31 05:28:11;;;;;;;31.27;6.32;;;;;;;;;;5093403;28;20044;-72
2023/01/31 05:30:37;;;;;;;37.97;6.78;;;;;;;;;;5096541;28;20101;-72
2023/01/31 05:33:03;;;;;;;34.65;4.50;;;;;;;;;;5094762;28;20047;-71
2023/01/31 05:35:29;;;;;;;38.33;6.20;;;;;;;;;;5092953;28;20428;-71
2023/01/31 05:37:56;;;;;;;41.15;6.75;;;;;;;;;;5096974;28;20412;-72
2023/01/31 05:40:22;;;;;;;27.77;5.68;;;;;;;;;;5096006;28;20067;-72
2023/01/31 05:42:53;;;;;;;32.47;4.82;;;;;;;;;;5079709;28;20052;-72
2023/01/31 05:45:20;;;;;;;29.85;4.82;;;;;;;;;;5094598;28;20032;-71
2023/01/31 05:47:46;;;;;;;38.35;7.03;;;;;;;;;;5093966;28;20101;-71
2023/01/31 05:50:13;;;;;;;27.88;6.70;;;;;;;;;;5077865;28;20044;-72
2023/01/31 05:52:39;;;;;;;37.03;6.50;;;;;;;;;;5094595;28;20467;-71
2023/01/31 05:55:05;;;;;;;35.90;7.20;;;;;;;;;;5089430;28;20570;-83
2023/01/31 05:57:31;;;;;;;31.42;5.97;;;;;;;;;;5079670;28;20103;-71
2023/01/31 05:59:59;;;;;;;30.65;5.13;;;;;;;;;;5078528;28;20116;-71
2023/01/31 06:02:25;;;;;;;34.40;5.97;;;;;;;;;;5101517;28;20140;-71
2023/01/31 06:04:51;;;;;;;38.05;5.60;;;;;;;;;;5064877;28;20411;-71
2023/01/31 06:07:17;;;;;;;33.25;5.95;;;;;;;;;;5099444;28;20039;-71
2023/01/31 06:09:43;;;;;;;34.80;5.85;;;;;;;;;;5104487;28;20085;-71
2023/01/31 06:12:13;;;;;;;31.45;5.18;;;;;;;;;;5078390;28;20039;-72
2023/01/31 06:14:39;;;;;;;38.00;6.78;;;;;;;;;;5101752;28;20043;-71
2023/01/31 06:17:05;;;;;;;31.67;6.30;;;;;;;;;;5097779;28;20411;-72
2023/01/31 06:19:32;;;;;;;35.63;5.82;;;;;;;;;;5080883;28;20102;-72
2023/01/31 06:21:58;;;;;;;36.53;6.20;;;;;;;;;;5099693;28;20035;-72
2023/01/31 06:24:24;;;;;;;27.60;5.95;;;;;;;;;;5079470;28;20069;-71
2023/01/31 06:26:50;;;;;;;25.67;5.57;;;;;;;;;;5100256;28;20075;-71
2023/01/31 06:29:16;;;;;;;31.48;5.40;;;;;;;;;;5083868;28;20047;-72
2023/01/31 06:31:44;;;;;;;34.05;5.38;;;;;;;;;;5098190;28;20039;-70
2023/01/31 06:34:10;;;;;;;38.72;5.53;;;;;;;;;;5108933;28;20517;-71
2023/01/31 06:36:36;;;;;;;32.35;5.00;;;;;;;;;;5106739;28;20063;-71
2023/01/31 06:39:03;;;;;;;29.27;4.45;;;;;;;;;;5088466;28;20096;-71
2023/01/31 06:41:29;;;;;;;22.50;4.57;;;;;;;;;;5102068;28;20079;-71
2023/01/31 06:43:55;;;;;;;37.70;6.43;;;;;;;;;;5101994;28;20043;-71
2023/01/31 06:46:21;;;;;;;35.10;5.68;;;;;;;;;;5101543;28;20052;-71
2023/01/31 06:48:48;;;;;;;28.25;4.72;;;;;;;;;;5104310;28;20032;-71
2023/01/31 06:51:15;;;;;;;29.33;4.72;;;;;;;;;;5101654;28;20047;-71
2023/01/31 06:53:41;;;;;;;30.10;4.75;;;;;;;;;;5104855;28;20028;-71
2023/01/31 06:56:08;;;;;;;33.45;6.35;;;;;;;;;;5097266;28;20127;-72
2023/01/31 06:58:34;;;;;;;30.10;4.70;;;;;;;;;;5080332;28;20113;-70
2023/01/31 07:01:04;;;;;;;27.95;4.25;;;;;;;;;;5101652;28;20101;-70
2023/01/31 07:03:30;;;;;;;26.58;4.35;;;;;;;;;;5077831;28;20052;-71
2023/01/31 07:05:56;;;;;;;34.40;5.30;;;;;;;;;;5099764;28;20038;-71
2023/01/31 07:08:23;;;;;;;23.48;4.60;;;;;;;;;;5103110;28;20088;-71
2023/01/31 07:10:49;;;;;;;28.80;4.65;;;;;;;;;;5081202;28;20048;-71
2023/01/31 07:13:15;;;;;;;24.05;3.97;;;;;;;;;;5104356;28;20035;-71
2023/01/31 07:15:41;;;;;;;25.40;4.13;;;;;;;;;;5086786;28;20387;-71
2023/01/31 07:18:08;;;;;;;22.13;3.38;;;;;;;;;;5107434;28;20036;-71
2023/01/31 07:20:34;;;;;;;26.88;4.70;;;;;;;;;;5104679;28;20084;-71
2023/01/31 07:23:00;;;;;;;22.33;3.88;;;;;;;;;;5094072;28;20055;-71
2023/01/31 07:25:27;;;;;;;31.13;3.88;;;;;;;;;;5103072;28;20122;-71
2023/01/31 07:27:53;;;;;;;29.27;4.03;;;;;;;;;;5088006;28;20155;-71
2023/01/31 07:30:19;;;;;;;21.27;3.08;;;;;;;;;;5098593;28;20442;-71
2023/01/31 07:32:45;;;;;;;19.80;3.55;;;;;;;;;;5078785;28;20031;-71
2023/01/31 07:35:11;;;;;;;27.75;4.65;;;;;;;;;;5079204;28;20432;-71
2023/01/31 07:37:39;;;;;;;20.73;4.20;;;;;;;;;;5079639;28;20040;-71
2023/01/31 07:40:06;;;;;;;20.75;2.92;;;;;;;;;;5076259;28;20585;-71
2023/01/31 07:42:32;;;;;;;22.25;3.53;;;;;;;;;;5073482;28;20040;-71
2023/01/31 07:44:58;;;;;;;23.02;3.75;;;;;;;;;;5084022;28;20039;-71
2023/01/31 07:47:24;;;;;;;23.75;4.13;;;;;;;;;;5083047;28;20060;-71
2023/01/31 07:49:50;;;;;;;30.48;4.57;;;;;;;;;;5081712;28;20329;-71
2023/01/31 07:52:16;;;;;;;19.38;4.18;;;;;;;;;;5075642;28;20029;-71
2023/01/31 07:54:43;;;;;;;20.65;3.75;;;;;;;;;;5082994;28;20072;-70
2023/01/31 07:57:09;;;;;;;24.50;4.82;;;;;;;;;;5084413;28;20043;-70
2023/01/31 07:59:35;;;;;;;29.42;5.22;;;;;;;;;;5085367;28;20484;-70
2023/01/31 08:04:46;;;;;;;26.80;5.32;;;;;;;;;;5075785;28;20037;-70
2023/01/31 08:07:12;;;;;;;28.60;5.93;;;;;;;;;;5082869;28;20194;-70
2023/01/31 08:09:38;;;;;;;29.95;4.13;;;;;;;;;;5084964;28;20047;-70
2023/01/31 08:12:06;;;;;;;36.33;5.35;;;;;;;;;;5083142;28;20037;-70
2023/01/31 08:14:32;;;;;;;28.00;5.13;;;;;;;;;;5082802;28;20051;-70
2023/01/31 08:16:59;;;;;;;30.23;4.57;;;;;;;;;;5082016;28;20040;-70
2023/01/31 08:19:25;;;;;;;35.95;6.03;;;;;;;;;;5084079;28;20083;-70
2023/01/31 08:21:51;;;;;;;28.40;3.75;;;;;;;;;;5082347;28;20051;-70
2023/01/31 08:24:18;;;;;;;26.02;4.50;;;;;;;;;;5072169;28;20432;-70
2023/01/31 08:26:44;;;;;;;30.02;4.93;;;;;;;;;;5074100;28;20033;-70
2023/01/31 08:29:10;;;;;;;29.55;5.93;;;;;;;;;;5079468;28;20044;-70
2023/01/31 08:31:36;;;;;;;27.00;5.45;;;;;;;;;;5078079;28;20098;-70
2023/01/31 08:34:02;;;;;;;45.30;6.15;;;;;;;;;;5080125;28;20509;-70
2023/01/31 08:36:30;;;;;;;22.35;3.38;;;;;;;;;;5080199;28;20055;-70
2023/01/31 08:38:57;;;;;;;28.67;4.43;;;;;;;;;;5078222;28;20124;-70
2023/01/31 08:41:24;;;;;;;26.95;4.60;;;;;;;;;;5097071;28;20047;-70
2023/01/31 08:43:50;;;;;;;27.52;4.50;;;;;;;;;;5098450;28;20076;-71
2023/01/31 08:46:17;;;;;;;29.88;4.28;;;;;;;;;;5102323;28;20403;-70
2023/01/31 08:48:43;;;;;;;27.67;5.13;;;;;;;;;;5098260;28;20031;-70
2023/01/31 08:51:10;;;;;;;28.17;5.10;;;;;;;;;;5095750;28;20048;-71
2023/01/31 08:53:37;;;;;;;32.67;4.68;;;;;;;;;;5095040;28;20070;-72
2023/01/31 08:56:05;;;;;;;29.25;5.10;;;;;;;;;;5097474;28;20046;-72
2023/01/31 08:58:32;;;;;;;34.83;6.30;;;;;;;;;;5096029;28;20050;-72
2023/01/31 09:01:06;;;;;;;34.75;5.55;;;;;;;;;;5097056;28;20054;-71
2023/01/31 09:03:33;;;;;;;42.17;5.78;;;;;;;;;;5098798;28;20348;-72
2023/01/31 09:05:59;;;;;;;36.08;6.13;;;;;;;;;;5100431;28;20051;-71
2023/01/31 09:08:25;;;;;;;35.05;5.20;;;;;;;;;;5097213;28;20032;-69
2023/01/31 09:10:52;;;;;;;42.60;6.30;;;;;;;;;;5102124;28;20040;-69
2023/01/31 09:13:18;;;;;;;34.58;5.40;;;;;;;;;;5102270;28;20470;-69
2023/01/31 09:15:45;;;;;;;38.15;5.82;;;;;;;;;;5084733;28;20384;-69
2023/01/31 09:18:11;;;;;;;41.35;6.28;;;;;;;;;;5078819;28;20171;-69
2023/01/31 09:20:37;;;;;;;40.78;5.90;;;;;;;;;;5075844;28;20075;-69
2023/01/31 09:23:03;;;;;;;28.50;4.97;;;;;;;;;;5092419;28;20032;-69
2023/01/31 09:25:30;;;;;;;37.17;6.43;;;;;;;;;;5073457;28;20048;-70
2023/01/31 09:27:56;;;;;;;38.10;5.38;;;;;;;;;;5077778;28;20036;-69
2023/01/31 09:30:22;;;;;;;33.78;4.85;;;;;;;;;;5074243;28;20047;-70
2023/01/31 09:32:48;;;;;;;49.53;6.68;;;;;;;;;;5077471;28;20139;-70
2023/01/31 09:35:15;;;;;;;39.95;5.10;;;;;;;;;;5084655;28;20482;-70
2023/01/31 09:37:41;;;;;;;29.63;4.80;;;;;;;;;;5066900;28;20373;-70
2023/01/31 09:40:10;;;;;;;39.30;5.75;;;;;;;;;;5073070;28;20048;-71
2023/01/31 09:42:42;;;;;;;32.30;5.40;;;;;;;;;;5091881;28;20151;-71
2023/01/31 09:45:13;;;;;;;39.53;5.72;;;;;;;;;;5099075;28;20117;-71
2023/01/31 09:47:42;;;;;;;33.28;4.78;;;;;;;;;;5073200;28;20098;-71
2023/01/31 09:50:18;;;;;;;30.60;5.65;;;;;;;;;;5092179;28;20126;-71
2023/01/31 09:52:44;;;;;;;39.55;5.13;;;;;;;;;;5095671;28;20040;-71
2023/01/31 09:55:15;;;;;;;35.72;4.97;;;;;;;;;;5090933;28;20044;-72
2023/01/31 09:57:45;;;;;;;35.40;4.65;;;;;;;;;;5102007;28;20104;-71
2023/01/31 10:00:20;;;;;;;29.10;4.75;;;;;;;;;;5077428;28;20054;-71
2023/01/31 10:02:55;;;;;;;40.38;6.20;;;;;;;;;;5074589;28;20118;-71
2023/01/31 10:05:28;;;;;;;38.63;4.78;;;;;;;;;;5073952;28;20123;-71
2023/01/31 10:07:57;;;;;;;41.08;6.00;;;;;;;;;;5080982;28;20040;-71
2023/01/31 10:10:30;;;;;;;33.78;5.40;;;;;;;;;;5098249;28;20464;-69
2023/01/31 10:12:59;;;;;;;37.85;5.93;;;;;;;;;;5080416;28;20067;-69
2023/01/31 10:15:33;;;;;;;34.63;5.47;;;;;;;;;;5091234;28;20044;-70
2023/01/31 10:17:59;;;;;;;;;;;;;;;;;;5095068;28;21515;-69
2023/01/31 10:20:26;;;;;;;39.15;5.43;;;;;;;;;;5097641;28;19920;-71
2023/01/31 10:22:58;;;;;;;41.13;6.25;;;;;;;;;;5100151;28;20130;-71
2023/01/31 10:25:26;;;;;;;38.75;5.93;;;;;;;;;;5100047;28;20426;-70
2023/01/31 10:27:56;;;;;;;40.60;5.85;;;;;;;;;;5102726;28;20499;-71
2023/01/31 10:30:27;;;;;;;42.30;5.70;;;;;;;;;;5085058;28;20758;-75
2023/01/31 10:32:58;;;;;;;40.95;7.18;;;;;;;;;;5058415;28;20040;-71
2023/01/31 10:35:29;;;;;;;35.85;7.53;;;;;;;;;;5100547;28;20032;-71
2023/01/31 10:38:05;;;;;;;25.55;5.70;;;;;;;;;;5096930;28;20036;-71
2023/01/31 10:40:35;;;;;;;30.20;4.97;;;;;;;;;;5079328;28;20044;-71
2023/01/31 10:43:09;;;;;;;32.13;5.55;;;;;;;;;;5084636;28;20044;-72
2023/01/31 10:45:37;;;;;;;34.90;5.43;;;;;;;;;;5103032;28;20051;-71
2023/01/31 10:48:17;;;;;;;41.72;6.18;;;;;;;;;;5097328;28;20040;-72
2023/01/31 10:50:49;;;;;;;38.58;6.03;;;;;;;;;;5084920;28;20044;-71
2023/01/31 10:53:26;;;;;;;36.38;5.60;;;;;;;;;;5102333;28;20568;-71
2023/01/31 10:56:03;;;;;;;33.88;5.00;;;;;;;;;;5098546;28;20460;-70
2023/01/31 10:58:29;;;;;;;33.80;4.53;;;;;;;;;;5099806;28;20404;-71
2023/01/31 11:00:56;;;;;;;38.35;5.05;;;;;;;;;;5102681;28;20032;-71
2023/01/31 11:03:22;;;;;;;34.90;4.63;;;;;;;;;;5109797;28;20104;-71
2023/01/31 11:05:50;;;;;;;26.13;4.00;;;;;;;;;;5097332;28;20032;-71
2023/01/31 11:08:25;;;;;;;41.95;7.30;;;;;;;;;;5100332;28;20391;-71
2023/01/31 11:10:52;;;;;;;36.05;5.18;;;;;;;;;;5098350;28;20112;-71
2023/01/31 11:13:19;;;;;;;39.50;5.40;;;;;;;;;;5097764;28;20514;-71
2023/01/31 11:15:47;;;;;;;31.90;5.05;;;;;;;;;;5098908;28;20041;-71
2023/01/31 11:18:22;;;;;;;30.98;4.70;;;;;;;;;;5098932;28;20051;-71
2023/01/31 11:20:49;;;;;;;26.52;4.97;;;;;;;;;;5100802;28;20445;-71
2023/01/31 11:23:16;;;;;;;24.80;4.57;;;;;;;;;;5079230;28;20036;-72
2023/01/31 11:25:47;;;;;;;27.92;4.60;;;;;;;;;;5096065;28;20432;-71
2023/01/31 11:28:23;;;;;;;29.08;4.97;;;;;;;;;;5083295;28;20039;-71
2023/01/31 11:30:50;;;;;;;30.70;5.68;;;;;;;;;;5098944;28;20071;-71
2023/01/31 11:33:35;;;;;;;25.80;5.72;;;;;;;;;;5095333;28;20051;-71
2023/01/31 11:36:07;;;;;;;23.33;4.55;;;;;;;;;;5081982;28;20470;-71
2023/01/31 11:38:33;;;;;;;35.10;5.68;;;;;;;;;;5079951;28;20070;-71
2023/01/31 11:40:59;;;;;;;27.92;4.25;;;;;;;;;;5096135;28;20495;-71
2023/01/31 11:43:29;;;;;;;25.90;4.65;;;;;;;;;;5097220;28;20399;-71
2023/01/31 11:46:01;;;;;;;33.63;4.85;;;;;;;;;;5096786;28;20069;-71
2023/01/31 11:48:40;;;;;;;28.20;3.53;;;;;;;;;;5079531;28;20062;-71
2023/01/31 11:51:07;;;;;;;30.85;6.05;;;;;;;;;;5095672;28;20047;-71
2023/01/31 11:53:38;;;;;;;27.73;4.75;;;;;;;;;;5084898;28;20035;-71
2023/01/31 11:56:10;;;;;;;27.63;4.45;;;;;;;;;;5097180;28;20036;-72
2023/01/31 11:58:38;;;;;;;28.83;4.35;;;;;;;;;;5095953;28;20043;-72
2023/01/31 12:01:12;;;;;;;21.85;4.25;;;;;;;;;;5098292;28;20039;-72
2023/01/31 12:03:38;;;;;;;27.73;5.53;;;;;;;;;;5099032;28;20398;-72
2023/01/31 12:06:06;;;;;;;22.73;4.55;;;;;;;;;;5095802;28;20039;-71
2023/01/31 12:08:40;;;;;;;33.13;4.65;;;;;;;;;;5078973;28;20048;-72
2023/01/31 12:11:18;;;;;;;24.67;4.03;;;;;;;;;;5078340;28;20135;-71
2023/01/31 12:13:48;;;;;;;25.80;4.05;;;;;;;;;;5098151;28;20048;-71
2023/01/31 12:16:16;;;;;;;27.48;4.15;;;;;;;;;;5102175;28;20074;-75
2023/01/31 12:18:51;;;;;;;23.05;4.22;;;;;;;;;;5104306;28;20059;-76
2023/01/31 12:21:22;;;;;;;24.30;4.55;;;;;;;;;;5099553;28;20164;-77
2023/01/31 12:23:49;;;;;;;19.25;3.35;;;;;;;;;;5099778;28;20040;-76
2023/01/31 12:26:20;;;;;;;24.00;3.72;;;;;;;;;;5097604;28;20169;-76
2023/01/31 12:29:03;;;;;;;24.75;4.43;;;;;;;;;;5097156;28;20052;-76
2023/01/31 12:31:35;;;;;;;25.23;4.35;;;;;;;;;;5098753;28;20056;-76
2023/01/31 12:34:07;;;;;;;27.05;4.60;;;;;;;;;;5079032;28;20052;-76
2023/01/31 12:36:40;;;;;;;22.02;4.25;;;;;;;;;;5084561;28;20163;-76
2023/01/31 12:39:26;;;;;;;25.08;4.55;;;;;;;;;;5099121;28;20055;-76
2023/01/31 12:42:06;;;;;;;20.20;4.75;;;;;;;;;;5099749;28;20498;-76
2023/01/31 12:44:43;;;;;;;28.30;4.10;;;;;;;;;;5097832;28;20040;-76
2023/01/31 12:47:29;;;;;;;22.15;4.25;;;;;;;;;;5081694;28;20388;-76
2023/01/31 12:50:10;;;;;;;25.25;4.32;;;;;;;;;;5104207;28;20491;-76
2023/01/31 12:52:42;;;;;;;21.05;5.35;;;;;;;;;;5098990;28;20028;-76
2023/01/31 12:55:24;;;;;;;20.17;4.15;;;;;;;;;;5080990;28;20121;-76
2023/01/31 12:57:50;;;;;;;22.65;4.07;;;;;;;;;;5083555;28;20073;-76
2023/01/31 13:00:16;;;;;;;24.33;3.67;;;;;;;;;;5097494;28;20031;-76
2023/01/31 13:02:44;;;;;;;26.35;4.60;;;;;;;;;;5080477;28;20093;-76
2023/01/31 13:05:14;;;;;;;24.55;4.45;;;;;;;;;;5095832;28;20031;-76
2023/01/31 13:07:45;;;;;;;24.45;4.95;;;;;;;;;;5094006;28;20363;-76
2023/01/31 13:10:27;;;;;;;21.63;4.05;;;;;;;;;;5078433;28;20130;-76
2023/01/31 13:12:55;;;;;;;18.33;3.83;;;;;;;;;;5092534;28;20503;-76
2023/01/31 13:15:28;;;;;;;26.20;5.32;;;;;;;;;;5092164;28;20044;-76
2023/01/31 13:17:57;;;;;;;27.70;4.82;;;;;;;;;;5097679;28;20044;-75
2023/01/31 13:20:28;;;;;;;29.05;4.43;;;;;;;;;;5095756;28;20187;-76
2023/01/31 13:22:59;;;;;;;24.65;4.18;;;;;;;;;;5097444;28;20052;-75
2023/01/31 13:25:38;;;;;;;28.00;5.82;;;;;;;;;;5097388;28;20491;-75
2023/01/31 13:28:11;;;;;;;38.80;7.28;;;;;;;;;;5082324;28;21319;-75
2023/01/31 13:30:41;;;;;;;26.45;5.53;;;;;;;;;;5099143;28;20067;-75
2023/01/31 13:33:17;;;;;;;27.02;4.68;;;;;;;;;;5097023;28;20432;-75
2023/01/31 13:35:44;;;;;;;21.33;3.42;;;;;;;;;;5096827;28;20048;-75
2023/01/31 13:38:14;;;;;;;23.85;4.78;;;;;;;;;;5097630;28;20043;-75
2023/01/31 13:40:45;;;;;;;26.33;3.90;;;;;;;;;;5079535;28;20511;-75
2023/01/31 13:43:13;;;;;;;23.42;3.90;;;;;;;;;;5080947;28;20044;-75
2023/01/31 13:45:47;;;;;;;19.90;4.18;;;;;;;;;;5096980;28;20097;-75
2023/01/31 13:48:21;;;;;;;27.27;5.03;;;;;;;;;;5094487;28;20052;-75
2023/01/31 13:50:50;;;;;;;24.80;5.03;;;;;;;;;;5080503;28;20047;-75
2023/01/31 13:53:21;;;;;;;23.48;4.82;;;;;;;;;;5099021;28;20040;-75
2023/01/31 13:55:48;;;;;;;28.42;4.93;;;;;;;;;;5095757;28;20044;-75
2023/01/31 13:58:15;;;;;;;24.90;5.00;;;;;;;;;;5097275;28;20399;-75
2023/01/31 14:00:42;;;;;;;24.70;4.85;;;;;;;;;;5077834;28;20051;-75
2023/01/31 14:03:10;;;;;;;28.52;4.82;;;;;;;;;;5098098;28;20040;-73
2023/01/31 14:05:44;;;;;;;24.75;5.32;;;;;;;;;;5096424;28;20051;-75
2023/01/31 14:08:26;;;;;;;30.17;5.43;;;;;;;;;;5078990;28;20067;-75
2023/01/31 14:10:52;;;;;;;24.63;4.40;;;;;;;;;;5077255;28;20050;-74
2023/01/31 14:13:37;;;;;;;26.38;4.72;;;;;;;;;;5094399;28;20040;-75
2023/01/31 14:16:23;;;;;;;33.60;5.22;;;;;;;;;;5074602;28;20048;-75
2023/01/31 14:18:50;;;;;;;30.98;5.65;;;;;;;;;;5101056;28;20422;-75
2023/01/31 14:21:37;;;;;;;26.27;4.07;;;;;;;;;;5099895;28;20142;-75
2023/01/31 14:24:05;;;;;;;21.98;3.90;;;;;;;;;;5099298;28;20040;-75
2023/01/31 14:26:34;;;;;;;34.88;5.75;;;;;;;;;;5100366;28;20048;-75
2023/01/31 14:29:07;;;;;;;29.02;5.88;;;;;;;;;;5101146;28;20052;-75
2023/01/31 14:31:33;;;;;;;20.37;4.17;;;;;;;;;;5100197;28;20054;-75
2023/01/31 14:33:59;;;;;;;33.97;5.70;;;;;;;;;;5100811;28;20035;-75
2023/01/31 14:36:33;;;;;;;28.55;5.05;;;;;;;;;;5083284;28;20401;-75
2023/01/31 14:39:23;;;;;;;27.27;5.47;;;;;;;;;;5099737;28;20040;-75
2023/01/31 14:42:00;;;;;;;38.15;5.60;;;;;;;;;;5098818;28;20070;-75
2023/01/31 14:44:44;;;;;;;34.47;6.28;;;;;;;;;;5080862;28;20183;-75
2023/01/31 14:47:22;;;;;;;29.02;5.25;;;;;;;;;;5102267;28;20558;-75
2023/01/31 14:49:48;;;;;;;32.80;5.43;;;;;;;;;;5102824;28;20044;-75